Pagrindinis puslapis
METAR-TAF:

METAR-TAF

Oro uostai :

Aden Ade tarptautinis oro uostas

Mogadišas, Somalis

platuma: 02-02N, ilguma: 045-21E, Aukštis: 9 m

Dabartinis oras

Ataskaita buvo paskelbta 48 minutes, ne 13:00 UTC
Vėjas 12 kt iš Rytų/Šiaurės Rytų
Temperatūra 30°C
Drėgmė 66%
Slėgis 1007 hPa
Matomumas 10 km arba daugiau
Išsisklaidę debesys ne aukštis 2600 ft

METAR: HCMM 151300Z 07012KT 9999 SCT026 30/23 Q1007

Laikas: 16:48 (13:48 UTC)


TAF: trūkstamas

Orai ataskaitas ir orų prognozės (METAR, TAF).

turimą stotys yra geltonos ir raudonos taškus žemėlapyje.

Perkelti pele per norėdami pamatyti stoties vardą.

Tada spustelėkite, norėdami matyti oro stebėjimo ir prognozės.

Norėdami pakeisti žemėlapį: spustelėkite ant žalios mygtukų su juodo kryžiaus žemyn,; žalią mygtuką su brūkšneliu, jei norite nutolinti; arba žalių rodyklių gretimoms žemėlapius.


METAR-TAF: